createdAt,value
2019-01-29T00:00:44.511Z,98780.70
2019-01-29T00:03:15.286Z,98780.70
2019-01-29T00:05:45.745Z,98778.37
2019-01-29T00:08:16.307Z,98786.62
2019-01-29T00:10:46.813Z,98782.29
2019-01-29T00:13:17.277Z,98788.86
2019-01-29T00:15:47.745Z,98793.05
2019-01-29T00:18:18.285Z,98790.89
2019-01-29T00:20:48.749Z,98802.23
2019-01-29T00:23:19.245Z,98810.95
2019-01-29T00:25:49.808Z,98809.63
2019-01-29T00:28:20.410Z,98804.98
2019-01-29T00:30:50.874Z,98809.61
2019-01-29T00:33:21.359Z,98817.53
2019-01-29T00:35:51.808Z,98814.08
2019-01-29T00:38:22.308Z,98808.14
2019-01-29T00:40:52.789Z,98811.00
2019-01-29T00:43:23.284Z,98811.00
2019-01-29T00:45:53.842Z,98822.70
2019-01-29T00:48:24.332Z,98828.78
2019-01-29T00:50:54.854Z,98818.79
2019-01-29T00:53:25.508Z,98818.79
2019-01-29T00:55:55.976Z,98817.26
2019-01-29T00:58:26.473Z,98817.26
2019-01-29T01:00:57.030Z,98816.58
2019-01-29T01:03:27.477Z,98816.58
2019-01-29T01:05:57.960Z,98794.52
2019-01-29T01:08:28.448Z,98804.37
2019-01-29T01:10:58.893Z,98803.56
2019-01-29T01:13:29.382Z,98808.98
2019-01-29T01:15:59.842Z,98806.72
2019-01-29T01:18:30.340Z,98826.15
2019-01-29T01:21:00.892Z,98813.69
2019-01-29T01:23:31.394Z,98839.84
2019-01-29T01:26:01.858Z,98827.78
2019-01-29T01:28:32.358Z,98819.38
2019-01-29T01:31:02.950Z,98819.38
2019-01-29T01:33:33.416Z,98829.95
2019-01-29T01:36:03.932Z,98804.98
2019-01-29T01:38:34.409Z,98809.53
2019-01-29T01:41:04.990Z,98811.27
2019-01-29T01:43:35.484Z,98808.74
2019-01-29T01:46:05.945Z,98812.23
2019-01-29T01:48:36.404Z,98813.55
2019-01-29T01:51:06.866Z,98802.16
2019-01-29T01:53:37.365Z,98790.24
2019-01-29T01:56:07.824Z,98793.77
2019-01-29T01:58:38.287Z,98798.81
2019-01-29T02:01:08.891Z,98799.89
2019-01-29T02:03:39.350Z,98809.27
2019-01-29T02:06:09.849Z,98796.13
2019-01-29T02:08:40.302Z,98813.59
2019-01-29T02:11:10.893Z,98812.85
2019-01-29T02:13:41.497Z,98787.20
2019-01-29T02:16:11.964Z,98794.17
2019-01-29T02:18:42.427Z,98792.50
2019-01-29T02:21:12.938Z,98791.30
2019-01-29T02:23:43.425Z,98791.30
2019-01-29T02:26:13.890Z,98797.27
2019-01-29T02:28:44.378Z,98796.99
2019-01-29T02:31:14.853Z,98825.11
2019-01-29T02:33:45.333Z,98811.96
2019-01-29T02:36:15.842Z,98798.75
2019-01-29T02:38:46.292Z,98790.02
2019-01-29T02:41:16.946Z,98797.33
2019-01-29T02:43:47.422Z,98797.33
2019-01-29T02:46:18.093Z,98808.69
2019-01-29T02:48:48.614Z,98799.53
2019-01-29T02:51:19.121Z,98799.53
2019-01-29T02:53:49.583Z,98827.13
2019-01-29T02:56:20.043Z,98827.91
2019-01-29T02:58:50.534Z,98824.43
2019-01-29T03:01:21.085Z,98819.60
2019-01-29T03:03:51.589Z,98803.45
2019-01-29T03:06:22.146Z,98803.31
2019-01-29T03:08:52.657Z,98806.34
2019-01-29T03:11:23.152Z,98789.44
2019-01-29T03:13:55.258Z,98790.51
2019-01-29T03:16:25.753Z,98687.04
2019-01-29T03:18:56.255Z,98800.29
2019-01-29T03:21:26.730Z,98798.28
2019-01-29T03:23:57.193Z,98796.20
2019-01-29T03:26:27.703Z,98785.03
2019-01-29T03:28:58.194Z,98791.81
2019-01-29T03:31:28.659Z,98791.57
2019-01-29T03:33:59.158Z,98776.52
2019-01-29T03:36:29.621Z,98795.17
2019-01-29T03:39:00.159Z,98789.06
2019-01-29T03:41:30.668Z,98784.79
2019-01-29T03:44:01.133Z,98801.74
2019-01-29T03:46:31.633Z,98789.66
2019-01-29T03:49:02.099Z,98786.12
2019-01-29T03:51:32.601Z,98802.55
2019-01-29T03:54:03.083Z,98779.98
2019-01-29T03:56:33.579Z,98780.02
2019-01-29T03:59:04.132Z,98785.78
2019-01-29T04:01:34.668Z,98773.91
2019-01-29T04:04:05.237Z,98778.19
2019-01-29T04:06:35.729Z,98778.92
2019-01-29T04:09:09.290Z,98781.29
2019-01-29T04:11:39.885Z,98788.39
2019-01-29T04:14:10.475Z,98794.11
2019-01-29T04:16:40.989Z,98801.70
2019-01-29T04:19:11.487Z,98810.82
2019-01-29T04:21:42.063Z,98813.78
2019-01-29T04:24:12.573Z,98806.13
2019-01-29T04:26:43.100Z,98797.72
2019-01-29T04:29:13.541Z,98819.89
2019-01-29T04:31:44.029Z,98818.73
2019-01-29T04:34:14.531Z,98809.94
2019-01-29T04:36:44.998Z,98809.48
2019-01-29T04:39:15.537Z,98807.11
2019-01-29T04:41:46.098Z,98816.19
2019-01-29T04:44:16.614Z,98804.42
2019-01-29T04:46:47.080Z,98811.87
2019-01-29T04:49:17.538Z,98807.18
2019-01-29T04:51:48.053Z,98812.23
2019-01-29T04:54:18.559Z,98808.88
2019-01-29T04:56:49.063Z,98800.72
2019-01-29T04:59:19.517Z,98802.34
2019-01-29T05:01:50.113Z,98814.84
2019-01-29T05:04:20.576Z,98817.25
2019-01-29T05:06:51.048Z,98816.37
2019-01-29T05:09:21.543Z,98817.85
2019-01-29T05:11:52.014Z,98821.00
2019-01-29T05:14:22.519Z,98813.83
2019-01-29T05:16:52.976Z,98827.85
2019-01-29T05:19:23.494Z,98841.59
2019-01-29T05:21:53.956Z,98862.06
2019-01-29T05:24:24.957Z,98865.45
2019-01-29T05:26:55.407Z,98844.63
2019-01-29T05:29:25.873Z,98847.36
2019-01-29T05:31:56.381Z,98840.86
2019-01-29T05:34:26.891Z,98845.02
2019-01-29T05:36:57.347Z,98835.02
2019-01-29T05:39:27.815Z,98839.94
2019-01-29T05:41:58.320Z,98828.77
2019-01-29T05:44:28.905Z,98826.23
2019-01-29T05:46:59.409Z,98827.14
2019-01-29T05:49:29.916Z,98823.71
2019-01-29T05:52:00.430Z,98835.58
2019-01-29T05:54:30.896Z,98844.00
2019-01-29T05:57:01.405Z,98837.81
2019-01-29T05:59:31.910Z,98834.06
2019-01-29T06:02:02.372Z,98835.87
2019-01-29T06:04:32.860Z,98836.54
2019-01-29T06:07:03.412Z,98829.89
2019-01-29T06:09:33.917Z,98845.97
2019-01-29T06:12:04.585Z,98858.72
2019-01-29T06:14:35.195Z,98843.20
2019-01-29T06:17:05.915Z,98858.86
2019-01-29T06:19:36.385Z,98744.52
2019-01-29T06:22:06.950Z,98844.16
2019-01-29T06:24:37.454Z,98844.61
2019-01-29T06:27:08.016Z,98840.25
2019-01-29T06:29:38.736Z,98843.88
2019-01-29T06:32:09.191Z,98724.10
2019-01-29T06:34:39.769Z,98832.08
2019-01-29T06:37:10.288Z,98847.25
2019-01-29T06:39:40.758Z,98847.98
2019-01-29T06:42:11.395Z,98864.57
2019-01-29T06:44:41.892Z,98861.65
2019-01-29T06:47:12.357Z,98860.22
2019-01-29T06:49:42.987Z,98861.05
2019-01-29T06:52:13.476Z,98873.89
2019-01-29T06:54:43.955Z,98865.46
2019-01-29T06:57:14.518Z,98859.53
2019-01-29T06:59:45.023Z,98861.05
2019-01-29T07:02:15.551Z,98878.66
2019-01-29T07:04:46.087Z,98881.64
2019-01-29T07:07:16.606Z,98878.95
2019-01-29T07:09:47.270Z,98884.17
2019-01-29T07:12:17.840Z,98880.27
2019-01-29T07:14:48.351Z,98880.76
2019-01-29T07:17:28.882Z,98875.75
2019-01-29T07:20:01.831Z,98866.71
2019-01-29T07:22:32.383Z,98861.98
2019-01-29T07:25:02.964Z,98871.34
2019-01-29T07:27:33.642Z,98884.53
2019-01-29T07:30:05.557Z,98880.72
2019-01-29T07:32:36.032Z,98880.02
2019-01-29T07:35:07.085Z,98892.88
2019-01-29T07:37:37.668Z,98898.69
2019-01-29T07:40:08.527Z,98895.67
2019-01-29T07:42:39.052Z,98899.70
2019-01-29T07:45:10.475Z,98890.89
2019-01-29T07:47:41.057Z,98887.45
2019-01-29T07:50:11.786Z,98895.89
2019-01-29T07:52:42.346Z,98900.47
2019-01-29T07:55:13.065Z,98887.31
2019-01-29T07:57:43.550Z,98874.89
2019-01-29T08:00:14.261Z,98882.58
2019-01-29T08:02:44.869Z,98869.28
2019-01-29T08:05:15.577Z,98885.60
2019-01-29T08:07:46.136Z,98894.75
2019-01-29T08:10:16.920Z,98880.19
2019-01-29T08:12:47.497Z,98879.53
2019-01-29T08:15:18.717Z,98874.34
2019-01-29T08:17:49.416Z,98886.59
2019-01-29T08:20:20.108Z,98892.67
2019-01-29T08:22:50.650Z,98793.02
2019-01-29T08:25:21.139Z,98903.41
2019-01-29T08:27:51.785Z,98897.94
2019-01-29T08:30:22.356Z,98902.38
2019-01-29T08:32:52.877Z,98913.32
2019-01-29T08:35:23.428Z,98905.16
2019-01-29T08:37:53.920Z,98921.55
2019-01-29T08:40:24.434Z,98921.55
2019-01-29T08:42:54.924Z,98917.38
2019-01-29T08:45:25.434Z,98906.15
2019-01-29T08:47:55.937Z,98919.39
2019-01-29T08:50:26.749Z,98911.23
2019-01-29T08:52:57.255Z,98904.58
2019-01-29T08:55:27.827Z,98908.26
2019-01-29T08:57:58.331Z,98901.11
2019-01-29T09:00:28.954Z,98910.30
2019-01-29T09:02:59.451Z,98925.88
2019-01-29T09:05:29.935Z,98931.63
2019-01-29T09:08:00.544Z,98921.13
2019-01-29T09:10:31.125Z,98916.70
2019-01-29T09:13:01.625Z,98912.20
2019-01-29T09:15:32.137Z,98912.92
2019-01-29T09:18:02.641Z,98919.25
2019-01-29T09:20:33.211Z,98906.98
2019-01-29T09:23:03.735Z,98911.80
2019-01-29T09:25:34.197Z,98909.38
2019-01-29T09:28:04.833Z,98908.41
2019-01-29T09:30:35.424Z,98901.48
2019-01-29T09:33:06.422Z,98899.66
2019-01-29T09:35:36.991Z,98896.21
2019-01-29T09:38:07.517Z,98901.05
2019-01-29T09:40:38.031Z,98911.47
2019-01-29T09:43:08.653Z,98904.49
2019-01-29T09:45:39.274Z,98896.33
2019-01-29T09:48:09.858Z,98894.59
2019-01-29T09:50:40.384Z,98889.32
2019-01-29T09:53:11.053Z,98881.55
2019-01-29T09:55:41.598Z,98873.08
2019-01-29T09:58:12.088Z,98873.83
2019-01-29T10:00:42.728Z,98874.12
2019-01-29T10:03:13.275Z,98869.06
2019-01-29T10:05:44.016Z,98877.82
2019-01-29T10:08:14.492Z,98870.82
2019-01-29T10:10:44.977Z,98862.02
2019-01-29T10:13:15.589Z,98854.93
2019-01-29T10:15:46.350Z,98854.45
2019-01-29T10:18:16.949Z,98847.31
2019-01-29T10:20:47.463Z,98751.45
2019-01-29T10:23:17.937Z,98828.39
2019-01-29T10:25:48.405Z,98828.03
2019-01-29T10:28:18.963Z,98853.12
2019-01-29T10:30:49.423Z,98841.83
2019-01-29T10:33:19.890Z,98827.50
2019-01-29T10:35:50.423Z,98830.89
2019-01-29T10:38:21.013Z,98816.61
2019-01-29T10:40:51.554Z,98817.98
2019-01-29T10:43:22.135Z,98824.85
2019-01-29T10:45:52.815Z,98813.27
2019-01-29T10:48:23.363Z,98815.66
2019-01-29T10:50:54.047Z,98807.94
2019-01-29T10:53:24.570Z,98815.17
2019-01-29T10:55:55.061Z,98817.56
2019-01-29T10:58:25.752Z,98804.36
2019-01-29T11:00:56.497Z,98801.16
2019-01-29T11:03:28.805Z,98815.00
2019-01-29T11:05:59.677Z,98811.99
2019-01-29T11:08:30.621Z,98818.53
2019-01-29T11:11:01.540Z,98795.16
2019-01-29T11:13:32.054Z,98796.34
2019-01-29T11:16:02.618Z,98794.38
2019-01-29T11:18:33.629Z,98781.42
2019-01-29T11:21:04.640Z,98791.83
2019-01-29T11:23:35.506Z,98778.77
2019-01-29T11:26:08.046Z,98784.25
2019-01-29T11:28:39.067Z,98779.86
2019-01-29T11:31:10.127Z,98765.89
2019-01-29T11:33:41.200Z,98761.92
2019-01-29T11:36:12.209Z,98775.16
2019-01-29T11:38:43.175Z,98774.71
2019-01-29T11:41:14.378Z,98652.34
2019-01-29T11:43:45.443Z,98773.44
2019-01-29T11:46:16.687Z,98775.21
2019-01-29T11:48:47.548Z,98779.46
2019-01-29T11:51:18.858Z,98775.13
2019-01-29T11:53:51.257Z,98784.41
2019-01-29T11:56:22.300Z,98774.55
2019-01-29T11:58:54.884Z,98767.52
2019-01-29T12:01:30.051Z,98766.66
2019-01-29T12:04:07.502Z,98556.53
2019-01-29T12:06:50.044Z,98763.16
2019-01-29T12:09:33.434Z,98768.37
2019-01-29T12:12:14.126Z,98775.39
2019-01-29T12:17:58.460Z,98760.05
2019-01-29T12:20:53.199Z,98760.92
2019-01-29T12:23:33.660Z,98764.15
2019-01-29T12:26:13.702Z,98755.28
2019-01-29T12:29:13.515Z,98748.89
2019-01-29T12:32:32.402Z,98747.00
2019-01-29T12:35:40.758Z,98750.36
2019-01-29T12:38:22.925Z,98755.12
2019-01-29T12:41:23.902Z,98743.05
2019-01-29T12:44:24.587Z,98739.53
2019-01-29T12:47:30.179Z,98744.41
2019-01-29T12:50:28.645Z,98738.00
2019-01-29T12:56:43.430Z,98741.27
2019-01-29T12:59:33.600Z,98755.45
2019-01-29T13:02:11.567Z,98746.08
2019-01-29T13:04:52.352Z,98636.19
2019-01-29T13:07:52.324Z,98749.29
2019-01-29T13:10:49.660Z,98757.47
2019-01-29T13:13:30.631Z,98745.70
2019-01-29T13:16:29.755Z,98754.55
2019-01-29T13:19:30.154Z,98756.73
2019-01-29T13:22:11.157Z,98764.03
2019-01-29T13:25:06.626Z,98758.02
2019-01-29T13:27:43.130Z,98754.27
2019-01-29T13:33:40.443Z,98762.88
2019-01-29T13:36:19.778Z,98770.75
2019-01-29T13:39:11.493Z,98761.61
2019-01-29T13:41:58.012Z,98765.16
2019-01-29T13:44:45.451Z,98759.76
2019-01-29T13:47:27.163Z,98754.39
2019-01-29T13:50:17.655Z,98756.33
2019-01-29T13:53:01.960Z,98749.22
2019-01-29T13:55:54.403Z,98751.05
2019-01-29T13:58:32.221Z,98757.34
2019-01-29T14:01:16.189Z,98779.10
2019-01-29T14:04:05.821Z,98775.60
2019-01-29T14:06:41.232Z,98782.42
2019-01-29T14:09:35.899Z,98789.17
2019-01-29T14:12:10.558Z,98785.65
2019-01-29T14:15:03.552Z,98790.02
2019-01-29T14:17:37.411Z,98778.08
2019-01-29T14:20:15.397Z,98765.87
2019-01-29T14:23:12.037Z,98747.97
2019-01-29T14:25:44.122Z,98737.81
2019-01-29T14:28:28.803Z,98730.52
2019-01-29T14:31:11.256Z,98723.02
2019-01-29T14:34:06.611Z,98722.22
2019-01-29T14:36:54.096Z,98719.16
2019-01-29T14:40:29.790Z,98710.72
2019-01-29T14:43:19.066Z,98729.70
2019-01-29T14:46:11.537Z,98739.66
2019-01-29T14:49:14.806Z,98750.80
2019-01-29T14:52:14.263Z,98763.58
2019-01-29T14:54:55.404Z,98767.97
2019-01-29T14:57:36.826Z,98770.14
2019-01-29T15:00:22.474Z,98772.34
2019-01-29T15:02:53.324Z,98769.65
2019-01-29T15:05:27.998Z,98759.58
2019-01-29T15:07:58.950Z,98771.23
2019-01-29T15:10:30.062Z,98753.64
2019-01-29T15:13:01.040Z,98755.44
2019-01-29T15:15:33.134Z,98749.48
2019-01-29T15:18:12.713Z,98751.39
2019-01-29T15:20:43.285Z,98740.92
2019-01-29T15:23:14.574Z,98742.39
2019-01-29T15:25:45.047Z,98748.30
2019-01-29T15:28:15.573Z,98760.09
2019-01-29T15:30:46.175Z,98769.06
2019-01-29T15:33:16.684Z,98770.70
2019-01-29T15:35:47.311Z,98767.75
2019-01-29T15:38:17.880Z,98755.00
2019-01-29T15:40:48.378Z,98759.53
2019-01-29T15:43:18.840Z,98756.19
2019-01-29T15:45:49.340Z,98756.11
2019-01-29T15:48:19.914Z,98759.67
2019-01-29T15:50:50.422Z,98760.22
2019-01-29T15:53:21.062Z,98768.56
2019-01-29T15:55:51.647Z,98770.13
2019-01-29T15:58:22.381Z,98768.16
2019-01-29T16:00:52.864Z,98773.02
2019-01-29T16:03:23.478Z,98772.68
2019-01-29T16:05:53.945Z,98785.62
2019-01-29T16:08:24.458Z,98794.45
2019-01-29T16:10:54.955Z,98784.10
2019-01-29T16:13:25.407Z,98789.70
2019-01-29T16:15:55.942Z,98788.25
2019-01-29T16:18:26.545Z,98797.11
2019-01-29T16:20:56.995Z,98810.28
2019-01-29T16:23:27.492Z,98813.68
2019-01-29T16:25:57.950Z,98802.75
2019-01-29T16:28:28.455Z,98803.23
2019-01-29T16:30:58.942Z,98796.69
2019-01-29T16:33:29.563Z,98803.39
2019-01-29T16:36:00.032Z,98812.25
2019-01-29T16:38:30.531Z,98811.75
2019-01-29T16:41:01.035Z,98814.35
2019-01-29T16:43:31.498Z,98808.52
2019-01-29T16:46:01.995Z,98805.78
2019-01-29T16:48:32.511Z,98806.39
2019-01-29T16:51:03.034Z,98807.20
2019-01-29T16:53:33.491Z,98802.20
2019-01-29T16:56:04.091Z,98794.91
2019-01-29T16:58:34.546Z,98800.20
2019-01-29T17:01:05.622Z,98794.80
2019-01-29T17:03:36.078Z,98795.92
2019-01-29T17:06:06.787Z,98798.35
2019-01-29T17:08:37.288Z,98796.46
2019-01-29T17:11:07.893Z,98796.32
2019-01-29T17:13:38.489Z,98786.91
2019-01-29T17:16:09.160Z,98789.79
2019-01-29T17:18:39.643Z,98793.69
2019-01-29T17:21:10.107Z,98792.69
2019-01-29T17:23:40.598Z,98790.56
2019-01-29T17:26:11.101Z,98784.78
2019-01-29T17:28:41.616Z,98785.63
2019-01-29T17:31:12.089Z,98791.57
2019-01-29T17:33:42.612Z,98788.06
2019-01-29T17:36:13.165Z,98779.78
2019-01-29T17:38:44.769Z,98785.67
2019-01-29T17:41:15.583Z,98782.09
2019-01-29T17:43:46.091Z,98776.23
2019-01-29T17:46:16.556Z,98782.86
2019-01-29T17:48:47.048Z,98792.62
2019-01-29T17:51:17.561Z,98797.00
2019-01-29T17:53:48.042Z,98795.73
2019-01-29T17:56:18.554Z,98796.05
2019-01-29T17:58:49.020Z,98790.97
2019-01-29T18:01:19.581Z,98787.19
2019-01-29T18:03:50.042Z,98772.66
2019-01-29T18:06:20.540Z,98772.16
2019-01-29T18:08:51.038Z,98773.12
2019-01-29T18:11:21.525Z,98777.05
2019-01-29T18:13:52.022Z,98781.40
2019-01-29T18:16:22.476Z,98777.59
2019-01-29T18:18:52.989Z,98785.22
2019-01-29T18:21:23.547Z,98779.70
2019-01-29T18:23:55.376Z,98772.54
2019-01-29T18:26:25.827Z,98774.65
2019-01-29T18:28:56.278Z,98788.03
2019-01-29T18:31:26.778Z,98786.67
2019-01-29T18:33:57.394Z,98794.30
2019-01-29T18:36:27.857Z,98787.06
2019-01-29T18:38:58.380Z,98788.77
2019-01-29T18:41:28.945Z,98787.45
2019-01-29T18:43:59.405Z,98781.21
2019-01-29T18:46:29.939Z,98777.25
2019-01-29T18:49:00.394Z,98774.01
2019-01-29T18:51:30.898Z,98782.37
2019-01-29T18:54:01.400Z,98764.34
2019-01-29T18:56:31.856Z,98764.88
2019-01-29T18:59:02.317Z,98776.20
2019-01-29T19:01:32.931Z,98780.44
2019-01-29T19:04:03.395Z,98781.52
2019-01-29T19:06:33.850Z,98781.59
2019-01-29T19:09:05.876Z,98782.10
2019-01-29T19:11:36.507Z,98779.41
2019-01-29T19:14:07.104Z,98777.29
2019-01-29T19:16:37.555Z,98779.17
2019-01-29T19:19:08.041Z,98771.96
2019-01-29T19:21:38.548Z,98768.42
2019-01-29T19:24:09.033Z,98762.83
2019-01-29T19:26:39.541Z,98759.36
2019-01-29T19:29:10.011Z,98750.38
2019-01-29T19:31:40.547Z,98745.76
2019-01-29T19:34:11.225Z,98757.02
2019-01-29T19:36:41.652Z,98761.83
2019-01-29T19:39:12.315Z,98756.39
2019-01-29T19:41:42.826Z,98758.59
2019-01-29T19:44:13.293Z,98762.72
2019-01-29T19:46:43.912Z,98764.64
2019-01-29T19:49:14.552Z,98765.22
2019-01-29T19:51:45.273Z,98773.78
2019-01-29T19:54:15.777Z,98770.61
2019-01-29T19:56:46.254Z,98765.73
2019-01-29T19:59:16.748Z,98759.44
2019-01-29T20:01:47.209Z,98758.78
2019-01-29T20:04:17.772Z,98637.67
2019-01-29T20:06:48.383Z,98752.97
2019-01-29T20:09:18.835Z,98745.65
2019-01-29T20:11:49.456Z,98745.45
2019-01-29T20:14:19.922Z,98739.36
2019-01-29T20:16:50.403Z,98735.89
2019-01-29T20:19:20.907Z,98739.67
2019-01-29T20:21:51.398Z,98744.26
2019-01-29T20:24:22.108Z,98755.01
2019-01-29T20:26:52.610Z,98755.20
2019-01-29T20:29:23.172Z,98737.63
2019-01-29T20:31:53.644Z,98735.74
2019-01-29T20:34:24.244Z,98736.02
2019-01-29T20:36:54.734Z,98727.92
2019-01-29T20:39:34.491Z,98726.39
2019-01-29T20:41:57.477Z,98733.43
2019-01-29T20:44:27.932Z,98728.84
2019-01-29T20:46:58.429Z,98717.25
2019-01-29T20:49:28.893Z,98711.28
2019-01-29T20:51:59.402Z,98700.77
2019-01-29T20:54:29.908Z,98698.34
2019-01-29T20:57:00.378Z,98692.25
2019-01-29T20:59:30.890Z,98680.47
2019-01-29T21:02:01.397Z,98696.06
2019-01-29T21:04:31.853Z,98694.33
2019-01-29T21:07:02.360Z,98687.00
2019-01-29T21:09:33.333Z,98697.78
2019-01-29T21:12:04.206Z,98702.91
2019-01-29T21:14:34.741Z,98689.66
2019-01-29T21:17:05.309Z,98685.66
2019-01-29T21:19:35.774Z,98688.27
2019-01-29T21:22:06.476Z,98691.34
2019-01-29T21:24:36.940Z,98687.88
2019-01-29T21:27:07.716Z,98682.86
2019-01-29T21:29:38.207Z,98674.16
2019-01-29T21:32:08.773Z,98683.40
2019-01-29T21:34:39.279Z,98684.79
2019-01-29T21:37:09.864Z,98678.55
2019-01-29T21:39:40.411Z,98681.93
2019-01-29T21:42:10.879Z,98686.91
2019-01-29T21:44:41.390Z,98673.62
2019-01-29T21:47:11.885Z,98675.85
2019-01-29T21:49:42.386Z,98696.42
2019-01-29T21:52:12.855Z,98686.05
2019-01-29T21:54:43.348Z,98683.67
2019-01-29T21:57:13.921Z,98672.63
2019-01-29T21:59:44.401Z,98663.91
2019-01-29T22:02:14.858Z,98680.88
2019-01-29T22:04:45.351Z,98684.48
2019-01-29T22:07:15.861Z,98683.02
2019-01-29T22:09:46.354Z,98680.67
2019-01-29T22:12:16.855Z,98673.53
2019-01-29T22:14:47.354Z,98675.64
2019-01-29T22:17:17.892Z,98684.36
2019-01-29T22:19:48.419Z,98680.19
2019-01-29T22:22:18.887Z,98675.45
2019-01-29T22:24:49.350Z,98694.71
2019-01-29T22:27:19.836Z,98688.06
2019-01-29T22:29:54.381Z,98678.63
2019-01-29T22:32:24.884Z,98673.62
2019-01-29T22:34:55.345Z,98675.20
2019-01-29T22:37:25.802Z,98673.73
2019-01-29T22:39:56.306Z,98668.39
2019-01-29T22:42:26.766Z,98655.78
2019-01-29T22:44:57.274Z,98644.84
2019-01-29T22:47:27.729Z,98646.13
2019-01-29T22:49:58.275Z,98653.20
2019-01-29T22:52:28.740Z,98655.59
2019-01-29T22:54:59.217Z,98655.95
2019-01-29T22:57:29.836Z,98522.39
2019-01-29T23:00:00.316Z,98637.65
2019-01-29T23:02:30.893Z,98640.97
2019-01-29T23:05:01.385Z,98651.02
2019-01-29T23:07:35.098Z,98641.45
2019-01-29T23:10:10.407Z,98628.30
2019-01-29T23:12:40.870Z,98619.78
2019-01-29T23:15:13.710Z,98617.22
2019-01-29T23:17:44.273Z,98624.53
2019-01-29T23:20:15.516Z,98633.45
2019-01-29T23:22:45.994Z,98629.73
2019-01-29T23:25:16.452Z,98622.81
2019-01-29T23:27:46.965Z,98615.69
2019-01-29T23:30:18.803Z,98609.64
2019-01-29T23:32:49.313Z,98605.80
2019-01-29T23:35:19.872Z,98600.48
2019-01-29T23:37:50.322Z,98607.02
2019-01-29T23:40:20.913Z,98596.52
2019-01-29T23:42:51.429Z,98605.34
2019-01-29T23:45:21.988Z,98598.34
2019-01-29T23:48:00.633Z,98601.22
2019-01-29T23:50:32.126Z,98601.97
2019-01-29T23:53:02.629Z,98606.05
2019-01-29T23:55:33.148Z,98608.28
2019-01-29T23:58:03.611Z,98597.91
